sensor_id;sensor_type;location;lat;lon;timestamp;temperature;humidity
31575;DHT22;18182;1.328;103.810;2023-05-07T00:01:09;29.10;99.90
31575;DHT22;18182;1.328;103.810;2023-05-07T00:03:36;29.10;99.90
31575;DHT22;18182;1.328;103.810;2023-05-07T00:06:03;29.20;99.90
31575;DHT22;18182;1.328;103.810;2023-05-07T00:08:29;29.10;99.90
31575;DHT22;18182;1.328;103.810;2023-05-07T00:10:55;29.10;99.90
31575;DHT22;18182;1.328;103.810;2023-05-07T00:13:22;29.10;99.90
31575;DHT22;18182;1.328;103.810;2023-05-07T00:15:48;29.10;99.90
31575;DHT22;18182;1.328;103.810;2023-05-07T00:18:14;29.20;99.90
31575;DHT22;18182;1.328;103.810;2023-05-07T00:20:40;29.20;99.90
31575;DHT22;18182;1.328;103.810;2023-05-07T00:23:06;29.20;99.90
31575;DHT22;18182;1.328;103.810;2023-05-07T00:25:32;29.20;99.90
31575;DHT22;18182;1.328;103.810;2023-05-07T00:27:58;29.20;99.90
31575;DHT22;18182;1.328;103.810;2023-05-07T00:30:29;29.20;99.90
31575;DHT22;18182;1.328;103.810;2023-05-07T00:32:55;29.30;99.90
31575;DHT22;18182;1.328;103.810;2023-05-07T00:35:21;29.30;99.90
31575;DHT22;18182;1.328;103.810;2023-05-07T00:37:47;29.20;99.90
31575;DHT22;18182;1.328;103.810;2023-05-07T00:40:14;29.20;99.90
31575;DHT22;18182;1.328;103.810;2023-05-07T00:42:40;29.20;99.90
31575;DHT22;18182;1.328;103.810;2023-05-07T00:45:07;29.20;99.90
31575;DHT22;18182;1.328;103.810;2023-05-07T00:47:33;29.20;99.90
31575;DHT22;18182;1.328;103.810;2023-05-07T00:49:59;29.20;99.90
31575;DHT22;18182;1.328;103.810;2023-05-07T00:52:26;29.20;99.90
31575;DHT22;18182;1.328;103.810;2023-05-07T00:54:52;29.30;99.90
31575;DHT22;18182;1.328;103.810;2023-05-07T00:57:18;29.30;99.90
31575;DHT22;18182;1.328;103.810;2023-05-07T00:59:45;29.40;99.90
31575;DHT22;18182;1.328;103.810;2023-05-07T01:02:12;29.40;99.90
31575;DHT22;18182;1.328;103.810;2023-05-07T01:04:38;29.40;99.90
31575;DHT22;18182;1.328;103.810;2023-05-07T01:07:04;29.40;99.90
31575;DHT22;18182;1.328;103.810;2023-05-07T01:09:30;29.40;99.90
31575;DHT22;18182;1.328;103.810;2023-05-07T01:11:57;29.50;99.90
31575;DHT22;18182;1.328;103.810;2023-05-07T01:14:23;29.60;99.90
31575;DHT22;18182;1.328;103.810;2023-05-07T01:16:51;29.60;99.90
31575;DHT22;18182;1.328;103.810;2023-05-07T01:19:18;29.50;99.90
31575;DHT22;18182;1.328;103.810;2023-05-07T01:21:46;29.50;99.90
31575;DHT22;18182;1.328;103.810;2023-05-07T01:24:12;29.50;99.90
31575;DHT22;18182;1.328;103.810;2023-05-07T01:26:39;29.60;99.90
31575;DHT22;18182;1.328;103.810;2023-05-07T01:29:05;29.60;99.90
31575;DHT22;18182;1.328;103.810;2023-05-07T01:31:32;29.60;99.90
31575;DHT22;18182;1.328;103.810;2023-05-07T01:33:59;29.70;99.90
31575;DHT22;18182;1.328;103.810;2023-05-07T01:36:26;29.70;99.90
31575;DHT22;18182;1.328;103.810;2023-05-07T01:38:53;29.70;99.90
31575;DHT22;18182;1.328;103.810;2023-05-07T01:41:20;29.70;99.90
31575;DHT22;18182;1.328;103.810;2023-05-07T01:43:47;29.70;99.90
31575;DHT22;18182;1.328;103.810;2023-05-07T01:46:13;29.70;99.90
31575;DHT22;18182;1.328;103.810;2023-05-07T01:48:39;29.70;99.90
31575;DHT22;18182;1.328;103.810;2023-05-07T01:51:06;29.80;99.90
31575;DHT22;18182;1.328;103.810;2023-05-07T01:53:37;29.80;99.90
31575;DHT22;18182;1.328;103.810;2023-05-07T01:56:03;29.80;99.90
31575;DHT22;18182;1.328;103.810;2023-05-07T01:58:30;29.90;99.90
31575;DHT22;18182;1.328;103.810;2023-05-07T02:00:56;29.90;99.90
31575;DHT22;18182;1.328;103.810;2023-05-07T02:03:22;29.90;99.90
31575;DHT22;18182;1.328;103.810;2023-05-07T02:05:48;30.00;99.90
31575;DHT22;18182;1.328;103.810;2023-05-07T02:08:14;29.90;99.90
31575;DHT22;18182;1.328;103.810;2023-05-07T02:10:41;29.90;99.90
31575;DHT22;18182;1.328;103.810;2023-05-07T02:13:07;29.90;99.90
31575;DHT22;18182;1.328;103.810;2023-05-07T02:15:33;30.10;99.90
31575;DHT22;18182;1.328;103.810;2023-05-07T02:20:25;30.10;99.90
31575;DHT22;18182;1.328;103.810;2023-05-07T02:22:51;30.10;99.90
31575;DHT22;18182;1.328;103.810;2023-05-07T02:25:17;30.10;99.90
31575;DHT22;18182;1.328;103.810;2023-05-07T02:27:43;30.10;99.90
31575;DHT22;18182;1.328;103.810;2023-05-07T02:30:10;30.10;99.90
31575;DHT22;18182;1.328;103.810;2023-05-07T02:32:36;30.10;99.90
31575;DHT22;18182;1.328;103.810;2023-05-07T02:35:02;30.10;99.90
31575;DHT22;18182;1.328;103.810;2023-05-07T02:37:28;30.20;99.90
31575;DHT22;18182;1.328;103.810;2023-05-07T02:39:55;30.20;99.90
31575;DHT22;18182;1.328;103.810;2023-05-07T02:42:21;30.20;99.90
31575;DHT22;18182;1.328;103.810;2023-05-07T02:44:47;30.30;99.90
31575;DHT22;18182;1.328;103.810;2023-05-07T02:47:14;30.30;99.90
31575;DHT22;18182;1.328;103.810;2023-05-07T02:49:40;30.20;99.90
31575;DHT22;18182;1.328;103.810;2023-05-07T02:52:07;30.20;99.90
31575;DHT22;18182;1.328;103.810;2023-05-07T02:54:33;30.30;99.90
31575;DHT22;18182;1.328;103.810;2023-05-07T02:57:02;30.30;99.90
31575;DHT22;18182;1.328;103.810;2023-05-07T02:59:28;30.40;99.90
31575;DHT22;18182;1.328;103.810;2023-05-07T03:01:54;30.50;99.90
31575;DHT22;18182;1.328;103.810;2023-05-07T03:04:21;30.50;99.90
31575;DHT22;18182;1.328;103.810;2023-05-07T03:06:47;30.50;99.90
31575;DHT22;18182;1.328;103.810;2023-05-07T03:09:13;30.50;99.90
31575;DHT22;18182;1.328;103.810;2023-05-07T03:11:39;30.50;99.90
31575;DHT22;18182;1.328;103.810;2023-05-07T03:14:05;30.60;99.90
31575;DHT22;18182;1.328;103.810;2023-05-07T03:16:33;30.60;99.90
31575;DHT22;18182;1.328;103.810;2023-05-07T03:18:59;30.50;99.90
31575;DHT22;18182;1.328;103.810;2023-05-07T03:21:25;30.50;99.90
31575;DHT22;18182;1.328;103.810;2023-05-07T03:23:52;30.60;99.90
31575;DHT22;18182;1.328;103.810;2023-05-07T03:26:18;30.60;99.90
31575;DHT22;18182;1.328;103.810;2023-05-07T03:28:45;30.70;99.90
31575;DHT22;18182;1.328;103.810;2023-05-07T03:31:11;30.80;99.90
31575;DHT22;18182;1.328;103.810;2023-05-07T03:33:39;30.80;99.90
31575;DHT22;18182;1.328;103.810;2023-05-07T03:36:14;30.80;99.90
31575;DHT22;18182;1.328;103.810;2023-05-07T03:38:41;30.80;99.90
31575;DHT22;18182;1.328;103.810;2023-05-07T03:41:07;30.80;99.90
31575;DHT22;18182;1.328;103.810;2023-05-07T03:43:33;30.80;99.90
31575;DHT22;18182;1.328;103.810;2023-05-07T03:45:59;30.90;99.90
31575;DHT22;18182;1.328;103.810;2023-05-07T03:48:26;30.90;99.90
31575;DHT22;18182;1.328;103.810;2023-05-07T03:50:52;30.90;99.90
31575;DHT22;18182;1.328;103.810;2023-05-07T03:53:18;30.90;99.90
31575;DHT22;18182;1.328;103.810;2023-05-07T03:55:44;31.00;99.90
31575;DHT22;18182;1.328;103.810;2023-05-07T03:58:10;31.00;99.90
31575;DHT22;18182;1.328;103.810;2023-05-07T04:00:36;31.10;99.90
31575;DHT22;18182;1.328;103.810;2023-05-07T04:03:04;31.10;99.90
31575;DHT22;18182;1.328;103.810;2023-05-07T04:05:30;31.00;99.90
31575;DHT22;18182;1.328;103.810;2023-05-07T04:08:00;31.10;99.90
31575;DHT22;18182;1.328;103.810;2023-05-07T04:10:26;31.00;99.90
31575;DHT22;18182;1.328;103.810;2023-05-07T04:12:53;31.00;99.90
31575;DHT22;18182;1.328;103.810;2023-05-07T04:15:19;31.10;99.90
31575;DHT22;18182;1.328;103.810;2023-05-07T04:17:45;31.10;99.90
31575;DHT22;18182;1.328;103.810;2023-05-07T04:20:16;31.20;99.90
31575;DHT22;18182;1.328;103.810;2023-05-07T04:22:42;31.20;99.90
31575;DHT22;18182;1.328;103.810;2023-05-07T04:25:08;31.20;99.90
31575;DHT22;18182;1.328;103.810;2023-05-07T04:27:35;31.20;99.90
31575;DHT22;18182;1.328;103.810;2023-05-07T04:30:01;31.30;99.90
31575;DHT22;18182;1.328;103.810;2023-05-07T04:32:28;31.30;99.90
31575;DHT22;18182;1.328;103.810;2023-05-07T04:34:55;31.30;99.90
31575;DHT22;18182;1.328;103.810;2023-05-07T04:37:21;31.40;99.90
31575;DHT22;18182;1.328;103.810;2023-05-07T04:39:47;31.30;99.90
31575;DHT22;18182;1.328;103.810;2023-05-07T04:42:16;31.40;99.90
31575;DHT22;18182;1.328;103.810;2023-05-07T04:44:43;31.30;99.90
31575;DHT22;18182;1.328;103.810;2023-05-07T04:47:11;31.30;99.90
31575;DHT22;18182;1.328;103.810;2023-05-07T04:49:37;31.40;99.90
31575;DHT22;18182;1.328;103.810;2023-05-07T04:52:04;31.40;99.90
31575;DHT22;18182;1.328;103.810;2023-05-07T04:54:30;31.40;99.90
31575;DHT22;18182;1.328;103.810;2023-05-07T04:56:56;31.40;99.90
31575;DHT22;18182;1.328;103.810;2023-05-07T04:59:23;31.40;99.90
31575;DHT22;18182;1.328;103.810;2023-05-07T05:01:49;31.40;99.90
31575;DHT22;18182;1.328;103.810;2023-05-07T05:04:15;31.40;99.90
31575;DHT22;18182;1.328;103.810;2023-05-07T05:06:41;31.40;99.90
31575;DHT22;18182;1.328;103.810;2023-05-07T05:09:07;31.40;99.90
31575;DHT22;18182;1.328;103.810;2023-05-07T05:11:33;31.40;99.90
31575;DHT22;18182;1.328;103.810;2023-05-07T05:13:59;31.40;99.90
31575;DHT22;18182;1.328;103.810;2023-05-07T05:16:26;31.40;99.90
31575;DHT22;18182;1.328;103.810;2023-05-07T05:18:52;31.40;99.90
31575;DHT22;18182;1.328;103.810;2023-05-07T05:21:20;31.40;99.90
31575;DHT22;18182;1.328;103.810;2023-05-07T05:23:46;31.40;99.90
31575;DHT22;18182;1.328;103.810;2023-05-07T05:26:12;31.40;99.90
31575;DHT22;18182;1.328;103.810;2023-05-07T05:28:38;31.40;99.90
31575;DHT22;18182;1.328;103.810;2023-05-07T05:31:05;31.40;99.90
31575;DHT22;18182;1.328;103.810;2023-05-07T05:33:31;31.40;99.90
31575;DHT22;18182;1.328;103.810;2023-05-07T05:35:57;31.50;99.90
31575;DHT22;18182;1.328;103.810;2023-05-07T05:38:23;31.50;99.90
31575;DHT22;18182;1.328;103.810;2023-05-07T05:40:49;31.60;99.90
31575;DHT22;18182;1.328;103.810;2023-05-07T05:43:15;31.60;99.90
31575;DHT22;18182;1.328;103.810;2023-05-07T05:45:42;31.60;99.90
31575;DHT22;18182;1.328;103.810;2023-05-07T05:48:08;31.70;99.90
31575;DHT22;18182;1.328;103.810;2023-05-07T05:50:34;31.70;99.90
31575;DHT22;18182;1.328;103.810;2023-05-07T05:53:03;31.70;99.90
31575;DHT22;18182;1.328;103.810;2023-05-07T05:55:30;31.70;99.90
31575;DHT22;18182;1.328;103.810;2023-05-07T05:57:58;31.60;99.90
31575;DHT22;18182;1.328;103.810;2023-05-07T06:00:24;31.60;99.90
31575;DHT22;18182;1.328;103.810;2023-05-07T06:02:51;31.60;99.90
31575;DHT22;18182;1.328;103.810;2023-05-07T06:05:17;31.50;99.90
31575;DHT22;18182;1.328;103.810;2023-05-07T06:07:43;31.60;99.90
31575;DHT22;18182;1.328;103.810;2023-05-07T06:10:09;31.60;99.90
31575;DHT22;18182;1.328;103.810;2023-05-07T06:12:35;31.60;99.90
31575;DHT22;18182;1.328;103.810;2023-05-07T06:15:01;31.60;99.90
31575;DHT22;18182;1.328;103.810;2023-05-07T06:17:27;31.60;99.90
31575;DHT22;18182;1.328;103.810;2023-05-07T06:19:54;31.60;99.90
31575;DHT22;18182;1.328;103.810;2023-05-07T06:22:20;31.60;99.90
31575;DHT22;18182;1.328;103.810;2023-05-07T06:24:46;31.70;99.90
31575;DHT22;18182;1.328;103.810;2023-05-07T06:27:12;31.60;99.90
31575;DHT22;18182;1.328;103.810;2023-05-07T06:29:38;31.60;99.90
31575;DHT22;18182;1.328;103.810;2023-05-07T06:32:08;31.60;99.90
31575;DHT22;18182;1.328;103.810;2023-05-07T06:34:34;31.70;99.90
31575;DHT22;18182;1.328;103.810;2023-05-07T06:37:00;31.70;99.90
31575;DHT22;18182;1.328;103.810;2023-05-07T06:39:28;31.70;99.90
31575;DHT22;18182;1.328;103.810;2023-05-07T06:41:54;31.60;99.90
31575;DHT22;18182;1.328;103.810;2023-05-07T06:44:20;31.70;99.90
31575;DHT22;18182;1.328;103.810;2023-05-07T06:46:46;31.70;99.90
31575;DHT22;18182;1.328;103.810;2023-05-07T06:49:13;31.70;99.90
31575;DHT22;18182;1.328;103.810;2023-05-07T06:51:39;31.70;99.90
31575;DHT22;18182;1.328;103.810;2023-05-07T06:54:05;31.70;99.90
31575;DHT22;18182;1.328;103.810;2023-05-07T06:56:32;31.60;99.90
31575;DHT22;18182;1.328;103.810;2023-05-07T06:58:59;31.70;99.90
31575;DHT22;18182;1.328;103.810;2023-05-07T07:01:25;31.70;99.90
31575;DHT22;18182;1.328;103.810;2023-05-07T07:03:52;31.70;99.90
31575;DHT22;18182;1.328;103.810;2023-05-07T07:06:18;31.70;99.90
31575;DHT22;18182;1.328;103.810;2023-05-07T07:08:44;31.70;99.90
31575;DHT22;18182;1.328;103.810;2023-05-07T07:11:11;31.70;99.90
31575;DHT22;18182;1.328;103.810;2023-05-07T07:13:37;31.70;99.90
31575;DHT22;18182;1.328;103.810;2023-05-07T07:16:03;31.70;99.90
31575;DHT22;18182;1.328;103.810;2023-05-07T07:18:29;31.70;99.90
31575;DHT22;18182;1.328;103.810;2023-05-07T07:20:56;31.70;99.90
31575;DHT22;18182;1.328;103.810;2023-05-07T07:23:22;31.70;99.90
31575;DHT22;18182;1.328;103.810;2023-05-07T07:25:48;31.70;99.90
31575;DHT22;18182;1.328;103.810;2023-05-07T07:28:14;31.60;99.90
31575;DHT22;18182;1.328;103.810;2023-05-07T07:30:40;31.60;99.90
31575;DHT22;18182;1.328;103.810;2023-05-07T07:33:06;31.60;99.90
31575;DHT22;18182;1.328;103.810;2023-05-07T07:35:32;31.60;99.90
31575;DHT22;18182;1.328;103.810;2023-05-07T07:37:59;31.70;99.90
31575;DHT22;18182;1.328;103.810;2023-05-07T07:40:25;31.70;99.90
31575;DHT22;18182;1.328;103.810;2023-05-07T07:42:53;31.70;99.90
31575;DHT22;18182;1.328;103.810;2023-05-07T07:45:19;31.60;99.90
31575;DHT22;18182;1.328;103.810;2023-05-07T07:47:45;31.60;99.90
31575;DHT22;18182;1.328;103.810;2023-05-07T07:50:12;31.50;99.90
31575;DHT22;18182;1.328;103.810;2023-05-07T07:52:38;31.50;99.90
31575;DHT22;18182;1.328;103.810;2023-05-07T07:55:04;31.50;99.90
31575;DHT22;18182;1.328;103.810;2023-05-07T07:57:31;31.50;99.90
31575;DHT22;18182;1.328;103.810;2023-05-07T07:59:57;31.40;99.90
31575;DHT22;18182;1.328;103.810;2023-05-07T08:02:23;31.50;99.90
31575;DHT22;18182;1.328;103.810;2023-05-07T08:04:49;31.50;99.90
31575;DHT22;18182;1.328;103.810;2023-05-07T08:07:15;31.50;99.90
31575;DHT22;18182;1.328;103.810;2023-05-07T08:09:43;31.50;99.90
31575;DHT22;18182;1.328;103.810;2023-05-07T08:12:10;31.50;99.90
31575;DHT22;18182;1.328;103.810;2023-05-07T08:14:36;31.40;99.90
31575;DHT22;18182;1.328;103.810;2023-05-07T08:17:02;31.40;99.90
31575;DHT22;18182;1.328;103.810;2023-05-07T08:19:28;31.50;99.90
31575;DHT22;18182;1.328;103.810;2023-05-07T08:21:54;31.40;99.90
31575;DHT22;18182;1.328;103.810;2023-05-07T08:24:22;31.50;99.90
31575;DHT22;18182;1.328;103.810;2023-05-07T08:26:48;31.40;99.90
31575;DHT22;18182;1.328;103.810;2023-05-07T08:29:15;31.40;99.90
31575;DHT22;18182;1.328;103.810;2023-05-07T08:31:41;31.40;99.90
31575;DHT22;18182;1.328;103.810;2023-05-07T08:34:07;31.40;99.90
31575;DHT22;18182;1.328;103.810;2023-05-07T08:36:33;31.40;99.90
31575;DHT22;18182;1.328;103.810;2023-05-07T08:38:59;31.40;99.90
31575;DHT22;18182;1.328;103.810;2023-05-07T08:41:26;31.40;99.90
31575;DHT22;18182;1.328;103.810;2023-05-07T08:43:52;31.40;99.90
31575;DHT22;18182;1.328;103.810;2023-05-07T08:46:22;31.30;99.90
31575;DHT22;18182;1.328;103.810;2023-05-07T08:48:49;31.30;99.90
31575;DHT22;18182;1.328;103.810;2023-05-07T08:51:16;31.30;99.90
31575;DHT22;18182;1.328;103.810;2023-05-07T08:53:42;31.30;99.90
31575;DHT22;18182;1.328;103.810;2023-05-07T08:56:08;31.30;99.90
31575;DHT22;18182;1.328;103.810;2023-05-07T08:58:35;31.20;99.90
31575;DHT22;18182;1.328;103.810;2023-05-07T09:01:23;31.20;99.90
31575;DHT22;18182;1.328;103.810;2023-05-07T09:03:49;31.20;99.90
31575;DHT22;18182;1.328;103.810;2023-05-07T09:06:15;31.20;99.90
31575;DHT22;18182;1.328;103.810;2023-05-07T09:08:44;31.20;99.90
31575;DHT22;18182;1.328;103.810;2023-05-07T09:11:14;31.10;99.90
31575;DHT22;18182;1.328;103.810;2023-05-07T09:13:40;31.10;99.90
31575;DHT22;18182;1.328;103.810;2023-05-07T09:16:10;31.10;99.90
31575;DHT22;18182;1.328;103.810;2023-05-07T09:18:43;31.10;99.90
31575;DHT22;18182;1.328;103.810;2023-05-07T09:21:11;31.10;99.90
31575;DHT22;18182;1.328;103.810;2023-05-07T09:23:37;31.10;99.90
31575;DHT22;18182;1.328;103.810;2023-05-07T09:26:04;31.10;99.90
31575;DHT22;18182;1.328;103.810;2023-05-07T09:28:33;31.10;99.90
31575;DHT22;18182;1.328;103.810;2023-05-07T09:30:59;31.10;99.90
31575;DHT22;18182;1.328;103.810;2023-05-07T09:33:26;31.10;99.90
31575;DHT22;18182;1.328;103.810;2023-05-07T09:35:53;31.10;99.90
31575;DHT22;18182;1.328;103.810;2023-05-07T09:38:20;31.10;99.90
31575;DHT22;18182;1.328;103.810;2023-05-07T09:40:47;31.10;99.90
31575;DHT22;18182;1.328;103.810;2023-05-07T09:43:13;31.10;99.90
31575;DHT22;18182;1.328;103.810;2023-05-07T09:45:39;31.10;99.90
31575;DHT22;18182;1.328;103.810;2023-05-07T09:48:06;31.10;99.90
31575;DHT22;18182;1.328;103.810;2023-05-07T09:50:45;31.00;99.90
31575;DHT22;18182;1.328;103.810;2023-05-07T09:53:14;31.00;99.90
31575;DHT22;18182;1.328;103.810;2023-05-07T09:55:40;31.00;99.90
31575;DHT22;18182;1.328;103.810;2023-05-07T09:58:07;31.00;99.90
31575;DHT22;18182;1.328;103.810;2023-05-07T10:00:34;30.90;99.90
31575;DHT22;18182;1.328;103.810;2023-05-07T10:03:01;30.90;99.90
31575;DHT22;18182;1.328;103.810;2023-05-07T10:05:27;30.90;99.90
31575;DHT22;18182;1.328;103.810;2023-05-07T10:07:53;30.90;99.90
31575;DHT22;18182;1.328;103.810;2023-05-07T10:10:19;30.90;99.90
31575;DHT22;18182;1.328;103.810;2023-05-07T10:12:46;30.90;99.90
31575;DHT22;18182;1.328;103.810;2023-05-07T10:15:13;30.90;99.90
31575;DHT22;18182;1.328;103.810;2023-05-07T10:17:40;30.80;99.90
31575;DHT22;18182;1.328;103.810;2023-05-07T10:20:06;30.80;99.90
31575;DHT22;18182;1.328;103.810;2023-05-07T10:22:51;30.90;99.90
31575;DHT22;18182;1.328;103.810;2023-05-07T10:25:26;30.80;99.90
31575;DHT22;18182;1.328;103.810;2023-05-07T10:27:54;30.80;99.90
31575;DHT22;18182;1.328;103.810;2023-05-07T10:32:56;30.70;99.90
31575;DHT22;18182;1.328;103.810;2023-05-07T10:35:32;30.60;99.90
31575;DHT22;18182;1.328;103.810;2023-05-07T10:37:58;30.70;99.90
31575;DHT22;18182;1.328;103.810;2023-05-07T10:40:25;30.60;99.90
31575;DHT22;18182;1.328;103.810;2023-05-07T10:42:57;30.60;99.90
31575;DHT22;18182;1.328;103.810;2023-05-07T10:45:25;30.60;99.90
31575;DHT22;18182;1.328;103.810;2023-05-07T10:50:36;30.50;99.90
31575;DHT22;18182;1.328;103.810;2023-05-07T10:55:51;30.50;99.90
31575;DHT22;18182;1.328;103.810;2023-05-07T11:00:50;30.50;99.90
31575;DHT22;18182;1.328;103.810;2023-05-07T11:03:17;30.40;99.90
31575;DHT22;18182;1.328;103.810;2023-05-07T11:05:43;30.40;99.90
31575;DHT22;18182;1.328;103.810;2023-05-07T11:08:09;30.40;99.90
31575;DHT22;18182;1.328;103.810;2023-05-07T11:10:54;30.40;99.90
31575;DHT22;18182;1.328;103.810;2023-05-07T11:16:15;30.30;99.90
31575;DHT22;18182;1.328;103.810;2023-05-07T11:18:49;30.30;99.90
31575;DHT22;18182;1.328;103.810;2023-05-07T11:21:34;30.30;99.90
31575;DHT22;18182;1.328;103.810;2023-05-07T11:24:01;30.30;99.90
31575;DHT22;18182;1.328;103.810;2023-05-07T11:26:28;30.30;99.90
31575;DHT22;18182;1.328;103.810;2023-05-07T11:28:54;30.30;99.90
31575;DHT22;18182;1.328;103.810;2023-05-07T11:31:23;30.30;99.90
31575;DHT22;18182;1.328;103.810;2023-05-07T11:33:50;30.30;99.90
31575;DHT22;18182;1.328;103.810;2023-05-07T11:36:16;30.30;99.90
31575;DHT22;18182;1.328;103.810;2023-05-07T11:38:42;30.30;99.90
31575;DHT22;18182;1.328;103.810;2023-05-07T11:41:08;30.30;99.90
31575;DHT22;18182;1.328;103.810;2023-05-07T11:43:34;30.30;99.90
31575;DHT22;18182;1.328;103.810;2023-05-07T11:46:09;30.30;99.90
31575;DHT22;18182;1.328;103.810;2023-05-07T11:48:35;30.30;99.90
31575;DHT22;18182;1.328;103.810;2023-05-07T11:51:02;30.30;99.90
31575;DHT22;18182;1.328;103.810;2023-05-07T11:53:41;30.30;99.90
31575;DHT22;18182;1.328;103.810;2023-05-07T11:58:34;30.30;99.90
31575;DHT22;18182;1.328;103.810;2023-05-07T12:01:01;30.30;99.90
31575;DHT22;18182;1.328;103.810;2023-05-07T12:03:27;30.30;99.90
31575;DHT22;18182;1.328;103.810;2023-05-07T12:05:53;30.30;99.90
31575;DHT22;18182;1.328;103.810;2023-05-07T12:08:20;30.30;99.90
31575;DHT22;18182;1.328;103.810;2023-05-07T12:10:49;30.30;99.90
31575;DHT22;18182;1.328;103.810;2023-05-07T12:13:16;30.30;99.90
31575;DHT22;18182;1.328;103.810;2023-05-07T12:15:42;30.30;99.90
31575;DHT22;18182;1.328;103.810;2023-05-07T12:18:09;30.30;99.90
31575;DHT22;18182;1.328;103.810;2023-05-07T12:20:36;30.30;99.90
31575;DHT22;18182;1.328;103.810;2023-05-07T12:23:02;30.30;99.90
31575;DHT22;18182;1.328;103.810;2023-05-07T12:25:32;30.30;99.90
31575;DHT22;18182;1.328;103.810;2023-05-07T12:28:00;30.30;99.90
31575;DHT22;18182;1.328;103.810;2023-05-07T12:30:26;30.30;99.90
31575;DHT22;18182;1.328;103.810;2023-05-07T12:32:55;30.30;99.90
31575;DHT22;18182;1.328;103.810;2023-05-07T12:35:28;30.30;99.90
31575;DHT22;18182;1.328;103.810;2023-05-07T12:37:58;30.30;99.90
31575;DHT22;18182;1.328;103.810;2023-05-07T12:40:47;30.30;99.90
31575;DHT22;18182;1.328;103.810;2023-05-07T12:43:19;30.30;99.90
31575;DHT22;18182;1.328;103.810;2023-05-07T12:45:49;30.40;99.90
31575;DHT22;18182;1.328;103.810;2023-05-07T12:48:15;30.30;99.90
31575;DHT22;18182;1.328;103.810;2023-05-07T12:50:42;30.30;99.90
31575;DHT22;18182;1.328;103.810;2023-05-07T12:53:11;30.30;99.90
31575;DHT22;18182;1.328;103.810;2023-05-07T12:55:48;30.40;99.90
31575;DHT22;18182;1.328;103.810;2023-05-07T12:58:15;30.40;99.90
31575;DHT22;18182;1.328;103.810;2023-05-07T13:00:41;30.40;99.90
31575;DHT22;18182;1.328;103.810;2023-05-07T13:03:09;30.40;99.90
31575;DHT22;18182;1.328;103.810;2023-05-07T13:05:35;30.30;99.90
31575;DHT22;18182;1.328;103.810;2023-05-07T13:08:01;30.40;99.90
31575;DHT22;18182;1.328;103.810;2023-05-07T13:10:27;30.30;99.90
31575;DHT22;18182;1.328;103.810;2023-05-07T13:12:54;30.30;99.90
31575;DHT22;18182;1.328;103.810;2023-05-07T13:15:20;30.30;99.90
31575;DHT22;18182;1.328;103.810;2023-05-07T13:17:47;30.30;99.90
31575;DHT22;18182;1.328;103.810;2023-05-07T13:20:13;30.30;99.90
31575;DHT22;18182;1.328;103.810;2023-05-07T13:22:39;30.30;99.90
31575;DHT22;18182;1.328;103.810;2023-05-07T13:25:05;30.30;99.90
31575;DHT22;18182;1.328;103.810;2023-05-07T13:27:32;30.30;99.90
31575;DHT22;18182;1.328;103.810;2023-05-07T13:30:01;30.30;99.90
31575;DHT22;18182;1.328;103.810;2023-05-07T13:32:27;30.30;99.90
31575;DHT22;18182;1.328;103.810;2023-05-07T13:34:53;30.30;99.90
31575;DHT22;18182;1.328;103.810;2023-05-07T13:37:19;30.30;99.90
31575;DHT22;18182;1.328;103.810;2023-05-07T13:39:45;30.30;99.90
31575;DHT22;18182;1.328;103.810;2023-05-07T13:42:11;30.30;99.90
31575;DHT22;18182;1.328;103.810;2023-05-07T13:44:37;30.30;99.90
31575;DHT22;18182;1.328;103.810;2023-05-07T13:47:04;30.30;99.90
31575;DHT22;18182;1.328;103.810;2023-05-07T13:49:30;30.30;99.90
31575;DHT22;18182;1.328;103.810;2023-05-07T13:51:56;30.30;99.90
31575;DHT22;18182;1.328;103.810;2023-05-07T13:54:23;30.30;99.90
31575;DHT22;18182;1.328;103.810;2023-05-07T13:56:49;30.30;99.90
31575;DHT22;18182;1.328;103.810;2023-05-07T13:59:15;30.20;99.90
31575;DHT22;18182;1.328;103.810;2023-05-07T14:01:41;30.20;99.90
31575;DHT22;18182;1.328;103.810;2023-05-07T14:04:10;30.20;99.90
31575;DHT22;18182;1.328;103.810;2023-05-07T14:06:36;30.20;99.90
31575;DHT22;18182;1.328;103.810;2023-05-07T14:09:03;30.20;99.90
31575;DHT22;18182;1.328;103.810;2023-05-07T14:11:29;30.20;99.90
31575;DHT22;18182;1.328;103.810;2023-05-07T14:13:55;30.10;99.90
31575;DHT22;18182;1.328;103.810;2023-05-07T14:16:22;30.10;99.90
31575;DHT22;18182;1.328;103.810;2023-05-07T14:18:48;30.10;99.90
31575;DHT22;18182;1.328;103.810;2023-05-07T14:21:14;30.10;99.90
31575;DHT22;18182;1.328;103.810;2023-05-07T14:23:41;30.00;99.90
31575;DHT22;18182;1.328;103.810;2023-05-07T14:26:07;30.00;99.90
31575;DHT22;18182;1.328;103.810;2023-05-07T14:28:33;30.00;99.90
31575;DHT22;18182;1.328;103.810;2023-05-07T14:30:59;30.00;99.90
31575;DHT22;18182;1.328;103.810;2023-05-07T14:33:25;30.00;99.90
31575;DHT22;18182;1.328;103.810;2023-05-07T14:35:51;30.00;99.90
31575;DHT22;18182;1.328;103.810;2023-05-07T14:38:17;29.90;99.90
31575;DHT22;18182;1.328;103.810;2023-05-07T14:40:44;30.00;99.90
31575;DHT22;18182;1.328;103.810;2023-05-07T14:43:10;30.00;99.90
31575;DHT22;18182;1.328;103.810;2023-05-07T14:45:36;30.00;99.90
31575;DHT22;18182;1.328;103.810;2023-05-07T14:48:02;30.00;99.90
31575;DHT22;18182;1.328;103.810;2023-05-07T14:50:29;30.10;99.90
31575;DHT22;18182;1.328;103.810;2023-05-07T14:52:55;30.00;99.90
31575;DHT22;18182;1.328;103.810;2023-05-07T14:55:21;30.00;99.90
31575;DHT22;18182;1.328;103.810;2023-05-07T14:57:47;30.00;99.90
31575;DHT22;18182;1.328;103.810;2023-05-07T15:00:14;30.00;99.90
31575;DHT22;18182;1.328;103.810;2023-05-07T15:02:40;30.00;99.90
31575;DHT22;18182;1.328;103.810;2023-05-07T15:05:07;30.00;99.90
31575;DHT22;18182;1.328;103.810;2023-05-07T15:07:33;30.10;99.90
31575;DHT22;18182;1.328;103.810;2023-05-07T15:09:59;30.10;99.90
31575;DHT22;18182;1.328;103.810;2023-05-07T15:12:26;30.00;99.90
31575;DHT22;18182;1.328;103.810;2023-05-07T15:14:52;30.00;99.90
31575;DHT22;18182;1.328;103.810;2023-05-07T15:17:18;30.00;99.90
31575;DHT22;18182;1.328;103.810;2023-05-07T15:19:44;30.00;99.90
31575;DHT22;18182;1.328;103.810;2023-05-07T15:22:10;30.00;99.90
31575;DHT22;18182;1.328;103.810;2023-05-07T15:24:36;30.00;99.90
31575;DHT22;18182;1.328;103.810;2023-05-07T15:27:02;30.00;99.90
31575;DHT22;18182;1.328;103.810;2023-05-07T15:29:30;30.00;99.90
31575;DHT22;18182;1.328;103.810;2023-05-07T15:31:56;29.90;99.90